createdAt,value
2019-05-15T00:00:09.926Z,3.60
2019-05-15T00:02:38.971Z,3.60
2019-05-15T00:05:09.033Z,3.60
2019-05-15T00:07:39.154Z,3.60
2019-05-15T00:10:08.963Z,3.60
2019-05-15T00:12:48.648Z,3.60
2019-05-15T00:15:18.276Z,3.70
2019-05-15T00:17:48.574Z,3.70
2019-05-15T00:20:20.088Z,3.70
2019-05-15T00:22:48.412Z,3.70
2019-05-15T00:25:18.839Z,3.60
2019-05-15T00:27:49.091Z,3.60
2019-05-15T00:30:18.443Z,3.50
2019-05-15T00:32:48.736Z,3.50
2019-05-15T00:35:18.437Z,3.50
2019-05-15T00:37:49.230Z,3.50
2019-05-15T00:40:18.336Z,3.50
2019-05-15T00:42:48.795Z,3.40
2019-05-15T00:45:18.616Z,3.50
2019-05-15T00:47:48.669Z,3.40
2019-05-15T00:50:18.263Z,3.50
2019-05-15T00:52:48.442Z,3.40
2019-05-15T00:55:19.102Z,3.40
2019-05-15T00:57:48.527Z,3.30
2019-05-15T01:00:38.790Z,3.20
2019-05-15T01:03:08.711Z,3.20
2019-05-15T01:05:38.748Z,3.20
2019-05-15T01:08:08.244Z,3.10
2019-05-15T01:10:38.570Z,3.10
2019-05-15T01:13:08.349Z,3.10
2019-05-15T01:15:38.642Z,3.10
2019-05-15T01:18:09.425Z,3.10
2019-05-15T01:20:39.152Z,3.10
2019-05-15T01:23:08.806Z,3.10
2019-05-15T01:25:39.036Z,3.10
2019-05-15T01:28:09.354Z,3.10
2019-05-15T01:30:39.545Z,3.10
2019-05-15T01:33:08.464Z,3.10
2019-05-15T01:35:38.316Z,3.10
2019-05-15T01:38:08.094Z,3.10
2019-05-15T01:40:38.624Z,3.10
2019-05-15T01:43:09.064Z,3.10
2019-05-15T01:45:39.406Z,3.20
2019-05-15T01:48:08.412Z,3.20
2019-05-15T01:50:38.706Z,3.20
2019-05-15T01:53:08.214Z,3.10
2019-05-15T01:55:39.342Z,3.10
2019-05-15T01:58:09.021Z,3.10
2019-05-15T02:00:39.124Z,3.10
2019-05-15T02:03:09.864Z,3.10
2019-05-15T02:05:39.014Z,3.10
2019-05-15T02:08:08.276Z,3.10
2019-05-15T02:10:39.212Z,3.10
2019-05-15T02:13:08.569Z,3.20
2019-05-15T02:15:39.866Z,3.20
2019-05-15T02:18:08.715Z,3.20
2019-05-15T02:20:38.935Z,3.20
2019-05-15T02:23:11.757Z,3.20
2019-05-15T02:25:38.744Z,3.30
2019-05-15T02:28:09.449Z,3.30
2019-05-15T02:30:40.412Z,3.30
2019-05-15T02:33:10.589Z,3.30
2019-05-15T02:35:39.134Z,3.30
2019-05-15T02:38:10.288Z,3.30
2019-05-15T02:40:40.572Z,3.30
2019-05-15T02:43:10.223Z,3.30
2019-05-15T02:45:42.168Z,3.30
2019-05-15T02:48:09.387Z,3.30
2019-05-15T02:50:39.203Z,3.30
2019-05-15T02:53:10.028Z,3.30
2019-05-15T02:55:40.350Z,3.30
2019-05-15T02:58:09.870Z,3.30
2019-05-15T03:00:47.638Z,3.20
2019-05-15T03:03:09.686Z,3.20
2019-05-15T03:05:40.898Z,3.20
2019-05-15T03:08:09.599Z,3.30
2019-05-15T03:10:40.678Z,3.30
2019-05-15T03:13:09.945Z,3.30
2019-05-15T03:15:40.286Z,3.40
2019-05-15T03:18:09.901Z,3.30
2019-05-15T03:20:39.351Z,3.40
2019-05-15T03:23:09.706Z,3.40
2019-05-15T03:25:40.388Z,3.40
2019-05-15T03:28:10.433Z,3.30
2019-05-15T03:31:07.267Z,3.30
2019-05-15T03:33:16.180Z,3.30
2019-05-15T03:35:42.952Z,3.30
2019-05-15T03:38:09.909Z,3.30
2019-05-15T03:40:39.643Z,3.30
2019-05-15T03:43:09.151Z,3.30
2019-05-15T03:45:40.492Z,3.30
2019-05-15T03:48:09.350Z,3.30
2019-05-15T03:50:40.138Z,3.30
2019-05-15T03:53:10.313Z,3.30
2019-05-15T03:55:40.438Z,3.30
2019-05-15T03:58:10.022Z,3.30
2019-05-15T04:00:39.783Z,3.30
2019-05-15T04:03:10.749Z,3.30
2019-05-15T04:05:40.554Z,3.30
2019-05-15T04:08:10.956Z,3.30
2019-05-15T04:10:40.074Z,3.30
2019-05-15T04:13:10.181Z,3.30
2019-05-15T04:15:40.195Z,3.30
2019-05-15T04:18:11.560Z,3.30
2019-05-15T04:20:44.202Z,3.30
2019-05-15T04:23:18.904Z,3.40
2019-05-15T04:25:49.635Z,3.40
2019-05-15T04:28:21.099Z,3.40
2019-05-15T04:30:52.044Z,3.40
2019-05-15T04:33:22.911Z,3.40
2019-05-15T04:35:51.572Z,3.50
2019-05-15T04:38:20.499Z,3.50
2019-05-15T04:40:50.253Z,3.50
2019-05-15T04:43:19.394Z,3.50
2019-05-15T04:45:49.776Z,3.50
2019-05-15T04:48:20.006Z,3.60
2019-05-15T04:50:49.652Z,3.60
2019-05-15T04:53:19.222Z,3.60
2019-05-15T04:55:49.182Z,3.60
2019-05-15T04:58:20.680Z,3.60
2019-05-15T05:00:55.136Z,3.60
2019-05-15T05:03:29.259Z,3.60
2019-05-15T05:05:59.303Z,3.60
2019-05-15T05:08:29.173Z,3.60
2019-05-15T05:10:59.122Z,3.60
2019-05-15T05:13:28.832Z,3.60
2019-05-15T05:15:58.675Z,3.60
2019-05-15T05:18:29.770Z,3.70
2019-05-15T05:20:59.646Z,3.70
2019-05-15T05:23:28.480Z,3.70
2019-05-15T05:25:58.201Z,3.70
2019-05-15T05:28:28.991Z,3.70
2019-05-15T05:30:58.750Z,3.70
2019-05-15T05:33:28.641Z,3.70
2019-05-15T05:35:58.377Z,3.70
2019-05-15T05:38:28.112Z,3.70
2019-05-15T05:40:58.712Z,3.90
2019-05-15T05:43:29.824Z,4.00
2019-05-15T05:45:58.224Z,4.00
2019-05-15T05:48:29.119Z,4.00
2019-05-15T05:50:58.400Z,4.00
2019-05-15T05:53:28.696Z,3.90
2019-05-15T05:55:58.088Z,3.90
2019-05-15T05:58:29.483Z,3.90
2019-05-15T06:00:58.582Z,3.90
2019-05-15T06:03:28.078Z,3.90
2019-05-15T06:05:59.054Z,3.90
2019-05-15T06:08:28.297Z,3.90
2019-05-15T06:10:58.570Z,3.90
2019-05-15T06:13:29.175Z,3.90
2019-05-15T06:15:59.085Z,3.90
2019-05-15T06:18:28.236Z,3.90
2019-05-15T06:20:58.574Z,3.90
2019-05-15T06:23:33.812Z,3.80
2019-05-15T06:25:59.208Z,3.80
2019-05-15T06:28:28.959Z,3.80
2019-05-15T06:31:00.639Z,3.90
2019-05-15T06:33:28.048Z,3.90
2019-05-15T06:35:59.074Z,3.80
2019-05-15T06:38:30.778Z,3.90
2019-05-15T06:40:58.308Z,3.90
2019-05-15T06:43:28.062Z,3.90
2019-05-15T06:45:58.450Z,3.90
2019-05-15T06:48:28.894Z,4.00
2019-05-15T06:50:57.951Z,4.00
2019-05-15T06:53:28.852Z,4.00
2019-05-15T06:55:58.497Z,4.00
2019-05-15T06:58:28.965Z,4.00
2019-05-15T07:00:59.306Z,4.10
2019-05-15T07:03:29.400Z,4.10
2019-05-15T07:05:59.846Z,4.10
2019-05-15T07:08:28.783Z,4.10
2019-05-15T07:10:57.935Z,4.20
2019-05-15T07:13:28.975Z,4.20
2019-05-15T07:15:58.528Z,4.10
2019-05-15T07:18:28.316Z,4.10
2019-05-15T07:20:58.084Z,4.10
2019-05-15T07:23:30.382Z,4.10
2019-05-15T07:25:58.772Z,4.10
2019-05-15T07:28:28.860Z,4.20
2019-05-15T07:30:58.334Z,4.20
2019-05-15T07:33:38.712Z,4.30
2019-05-15T07:35:58.988Z,4.30
2019-05-15T07:38:28.198Z,4.30
2019-05-15T07:41:03.002Z,4.20
2019-05-15T07:43:28.038Z,4.20
2019-05-15T07:45:59.053Z,4.10
2019-05-15T07:48:29.078Z,4.20
2019-05-15T07:50:59.417Z,4.20
2019-05-15T07:53:28.916Z,4.20
2019-05-15T07:56:01.199Z,4.20
2019-05-15T07:58:27.885Z,4.20
2019-05-15T08:00:59.009Z,4.20
2019-05-15T08:03:29.163Z,4.20
2019-05-15T08:06:02.094Z,4.20
2019-05-15T08:08:29.000Z,4.30
2019-05-15T08:10:58.010Z,4.30
2019-05-15T08:13:28.922Z,4.30
2019-05-15T08:15:58.010Z,4.30
2019-05-15T08:18:28.647Z,4.30
2019-05-15T08:20:58.651Z,4.40
2019-05-15T08:23:28.383Z,4.40
2019-05-15T08:25:57.897Z,4.40
2019-05-15T08:28:28.558Z,4.40
2019-05-15T08:30:58.362Z,4.40
2019-05-15T08:33:28.056Z,4.50
2019-05-15T08:35:58.824Z,4.50
2019-05-15T08:38:28.736Z,4.60
2019-05-15T08:40:59.213Z,4.70
2019-05-15T08:43:31.175Z,4.60
2019-05-15T08:45:59.267Z,4.60
2019-05-15T08:48:27.906Z,4.70
2019-05-15T08:50:57.909Z,4.80
2019-05-15T08:53:28.416Z,4.90
2019-05-15T08:55:58.777Z,5.00
2019-05-15T08:58:29.033Z,5.00
2019-05-15T09:00:58.673Z,5.00
2019-05-15T09:03:28.674Z,5.00
2019-05-15T09:05:58.951Z,5.00
2019-05-15T09:08:29.349Z,5.00
2019-05-15T09:10:58.694Z,5.00
2019-05-15T09:13:29.208Z,5.00
2019-05-15T09:15:58.869Z,5.00
2019-05-15T09:18:28.340Z,5.00
2019-05-15T09:20:59.307Z,5.00
2019-05-15T09:23:29.075Z,5.10
2019-05-15T09:25:57.939Z,5.00
2019-05-15T09:28:29.278Z,4.90
2019-05-15T09:30:59.058Z,4.90
2019-05-15T09:33:28.592Z,4.90
2019-05-15T09:35:58.399Z,5.00
2019-05-15T09:38:28.907Z,5.10
2019-05-15T09:40:58.578Z,5.20
2019-05-15T09:43:28.543Z,5.30
2019-05-15T09:45:58.282Z,5.30
2019-05-15T09:48:28.692Z,5.40
2019-05-15T09:50:58.770Z,5.50
2019-05-15T09:53:28.521Z,5.50
2019-05-15T09:55:59.726Z,5.60
2019-05-15T09:58:30.025Z,5.70
2019-05-15T10:00:58.134Z,5.80
2019-05-15T10:03:28.200Z,5.90
2019-05-15T10:05:57.064Z,6.10
2019-05-15T10:08:25.603Z,6.10
2019-05-15T10:10:54.167Z,6.20
2019-05-15T10:13:22.771Z,6.10
2019-05-15T10:15:51.420Z,6.10
2019-05-15T10:18:19.982Z,6.20
2019-05-15T10:20:48.754Z,6.30
2019-05-15T10:23:19.609Z,6.50
2019-05-15T10:25:48.596Z,6.60
2019-05-15T10:28:19.060Z,6.60
2019-05-15T10:30:49.581Z,6.70
2019-05-15T10:33:19.587Z,6.60
2019-05-15T10:35:48.774Z,6.70
2019-05-15T10:38:19.261Z,6.70
2019-05-15T10:41:00.253Z,6.70
2019-05-15T10:43:20.679Z,6.50
2019-05-15T10:45:50.000Z,6.50
2019-05-15T10:48:19.123Z,6.50
2019-05-15T10:50:47.813Z,6.40
2019-05-15T10:53:18.713Z,6.40
2019-05-15T10:55:49.593Z,6.40
2019-05-15T10:58:21.769Z,6.30
2019-05-15T11:00:49.342Z,6.20
2019-05-15T11:03:19.863Z,6.20
2019-05-15T11:05:49.310Z,6.30
2019-05-15T11:08:18.809Z,6.20
2019-05-15T11:10:49.364Z,6.20
2019-05-15T11:13:18.872Z,6.20
2019-05-15T11:15:49.219Z,6.20
2019-05-15T11:18:18.161Z,6.30
2019-05-15T11:20:48.595Z,6.30
2019-05-15T11:23:19.776Z,6.30
2019-05-15T11:25:48.726Z,6.40
2019-05-15T11:28:17.861Z,6.40
2019-05-15T11:30:49.049Z,6.40
2019-05-15T11:33:18.834Z,6.40
2019-05-15T11:35:57.987Z,6.50
2019-05-15T11:38:19.266Z,6.50
2019-05-15T11:40:47.510Z,6.50
2019-05-15T11:43:16.065Z,6.50
2019-05-15T11:45:44.754Z,6.50
2019-05-15T11:48:13.364Z,6.40
2019-05-15T11:50:42.009Z,6.50
2019-05-15T11:53:10.614Z,6.40
2019-05-15T11:55:39.248Z,6.40
2019-05-15T11:58:09.275Z,6.50
2019-05-15T12:00:38.576Z,6.60
2019-05-15T12:03:09.054Z,6.50
2019-05-15T12:05:38.495Z,6.50
2019-05-15T12:08:09.004Z,6.70
2019-05-15T12:10:38.888Z,6.80
2019-05-15T12:13:09.803Z,6.90
2019-05-15T12:15:38.786Z,6.90
2019-05-15T12:18:08.802Z,7.10
2019-05-15T12:20:39.002Z,7.20
2019-05-15T12:23:08.956Z,7.30
2019-05-15T12:25:39.604Z,7.40
2019-05-15T12:28:09.674Z,7.40
2019-05-15T12:30:40.197Z,7.50
2019-05-15T12:33:09.791Z,7.50
2019-05-15T12:35:39.784Z,7.50
2019-05-15T12:38:09.988Z,7.50
2019-05-15T13:00:41.021Z,8.20
2019-05-15T13:03:09.654Z,8.30
2019-05-15T13:05:39.179Z,8.40
2019-05-15T13:08:08.535Z,8.30
2019-05-15T13:10:38.449Z,8.30
2019-05-15T13:13:09.630Z,8.30
2019-05-15T13:15:41.033Z,8.30
2019-05-15T13:18:13.950Z,8.30
2019-05-15T13:20:38.876Z,8.30
2019-05-15T13:23:08.765Z,8.30
2019-05-15T13:25:39.506Z,8.30
2019-05-15T13:28:08.945Z,8.30
2019-05-15T13:30:41.337Z,8.10
2019-05-15T13:33:10.141Z,8.10
2019-05-15T13:35:38.540Z,8.00
2019-05-15T13:38:09.516Z,7.90
2019-05-15T13:40:41.767Z,8.00
2019-05-15T13:43:08.234Z,8.00
2019-05-15T13:45:38.669Z,8.10
2019-05-15T13:48:08.918Z,8.10
2019-05-15T13:50:40.343Z,8.20
2019-05-15T13:53:10.824Z,8.10
2019-05-15T13:55:42.486Z,8.20
2019-05-15T13:58:09.117Z,8.20
2019-05-15T14:00:39.070Z,8.20
2019-05-15T14:03:09.034Z,8.20
2019-05-15T14:05:38.621Z,8.20
2019-05-15T14:08:07.743Z,8.30
2019-05-15T14:10:38.664Z,8.30
2019-05-15T14:13:06.747Z,8.20
2019-05-15T14:15:35.350Z,8.20
2019-05-15T14:18:03.943Z,8.20
2019-05-15T14:20:32.570Z,8.20
2019-05-15T14:23:01.114Z,8.20
2019-05-15T14:25:29.735Z,8.20
2019-05-15T14:27:59.478Z,8.10
2019-05-15T14:30:29.275Z,8.10
2019-05-15T14:32:59.651Z,8.10
2019-05-15T14:35:28.301Z,8.10
2019-05-15T14:38:03.575Z,8.20
2019-05-15T14:40:27.489Z,8.20
2019-05-15T14:42:59.142Z,8.20
2019-05-15T14:45:34.542Z,8.20
2019-05-15T14:48:08.822Z,8.20
2019-05-15T14:50:38.578Z,8.20
2019-05-15T14:53:09.546Z,8.20
2019-05-15T14:55:43.197Z,8.20
2019-05-15T14:58:08.314Z,8.20
2019-05-15T15:00:40.366Z,8.20
2019-05-15T15:03:09.602Z,8.20
2019-05-15T15:05:38.793Z,8.20
2019-05-15T15:08:18.601Z,8.10
2019-05-15T15:10:38.405Z,8.10
2019-05-15T15:13:09.485Z,8.10
2019-05-15T15:15:37.968Z,8.10
2019-05-15T15:18:08.270Z,8.00
2019-05-15T15:20:38.054Z,8.00
2019-05-15T15:23:08.427Z,8.00
2019-05-15T15:25:39.541Z,8.00
2019-05-15T15:28:08.381Z,8.00
2019-05-15T15:30:38.526Z,8.00
2019-05-15T15:33:08.509Z,8.00
2019-05-15T15:35:38.338Z,8.00
2019-05-15T15:38:12.022Z,8.10
2019-05-15T15:40:38.799Z,8.10
2019-05-15T15:43:08.847Z,8.10
2019-05-15T15:45:39.161Z,8.10
2019-05-15T15:48:08.545Z,8.10
2019-05-15T15:50:38.326Z,8.10
2019-05-15T15:53:08.868Z,8.10
2019-05-15T15:55:38.622Z,8.10
2019-05-15T15:58:08.794Z,8.10
2019-05-15T16:00:38.369Z,8.10
2019-05-15T16:03:08.394Z,8.00
2019-05-15T16:05:38.475Z,8.00
2019-05-15T16:08:08.589Z,8.00
2019-05-15T16:10:38.031Z,8.00
2019-05-15T16:13:09.023Z,8.10
2019-05-15T16:15:38.562Z,8.10
2019-05-15T16:18:08.918Z,8.10
2019-05-15T16:20:39.632Z,8.10
2019-05-15T16:23:08.539Z,8.10
2019-05-15T16:25:38.513Z,8.00
2019-05-15T16:28:08.790Z,8.00
2019-05-15T16:30:50.421Z,7.90
2019-05-15T16:33:09.636Z,7.90
2019-05-15T16:35:38.324Z,7.90
2019-05-15T16:38:09.295Z,7.90
2019-05-15T16:40:38.273Z,7.90
2019-05-15T16:43:07.213Z,7.90
2019-05-15T16:45:38.542Z,7.90
2019-05-15T16:48:06.050Z,7.80
2019-05-15T16:50:34.580Z,7.80
2019-05-15T16:53:03.136Z,7.70
2019-05-15T16:55:31.738Z,7.70
2019-05-15T16:58:00.353Z,7.80
2019-05-15T17:00:29.359Z,7.80
2019-05-15T17:03:09.226Z,7.80
2019-05-15T17:05:29.089Z,7.80
2019-05-15T17:07:58.493Z,7.90
2019-05-15T17:10:28.166Z,7.90
2019-05-15T17:12:58.374Z,7.90
2019-05-15T17:15:27.926Z,7.90
2019-05-15T17:17:58.253Z,7.80
2019-05-15T17:20:28.460Z,7.80
2019-05-15T17:22:57.956Z,7.80
2019-05-15T17:25:26.669Z,7.70
2019-05-15T17:27:55.212Z,7.60
2019-05-15T17:30:23.894Z,7.60
2019-05-15T17:32:52.731Z,7.60
2019-05-15T17:35:21.325Z,7.60
2019-05-15T17:37:49.890Z,7.60
2019-05-15T17:40:18.983Z,7.60
2019-05-15T17:42:49.254Z,7.50
2019-05-15T17:45:19.353Z,7.40
2019-05-15T17:47:48.884Z,7.40
2019-05-15T17:50:19.189Z,7.40
2019-05-15T17:52:49.177Z,7.30
2019-05-15T17:55:18.499Z,7.30
2019-05-15T17:57:56.517Z,7.30
2019-05-15T18:00:19.079Z,7.40
2019-05-15T18:02:48.622Z,7.40
2019-05-15T18:05:18.792Z,7.40
2019-05-15T18:07:48.857Z,7.30
2019-05-15T18:10:18.819Z,7.30
2019-05-15T18:12:48.810Z,7.20
2019-05-15T18:15:17.694Z,7.10
2019-05-15T18:17:48.177Z,7.00
2019-05-15T18:20:29.939Z,6.90
2019-05-15T18:22:59.415Z,6.90
2019-05-15T18:25:28.102Z,6.90
2019-05-15T18:27:59.280Z,6.90
2019-05-15T18:30:28.269Z,6.90
2019-05-15T18:32:58.786Z,6.90
2019-05-15T18:35:29.536Z,7.00
2019-05-15T18:37:59.131Z,7.00
2019-05-15T18:40:28.079Z,6.90
2019-05-15T18:42:59.206Z,6.80
2019-05-15T18:45:28.945Z,6.80
2019-05-15T18:47:58.772Z,6.90
2019-05-15T18:50:28.390Z,6.90
2019-05-15T18:52:58.357Z,6.80
2019-05-15T18:55:27.369Z,6.80
2019-05-15T18:57:58.163Z,6.70
2019-05-15T19:00:29.252Z,6.70
2019-05-15T19:02:59.200Z,6.70
2019-05-15T19:05:28.054Z,6.70
2019-05-15T19:07:57.974Z,6.70
2019-05-15T19:10:28.264Z,6.70
2019-05-15T19:12:58.170Z,6.60
2019-05-15T19:15:28.649Z,6.60
2019-05-15T19:17:58.632Z,6.50
2019-05-15T19:20:28.020Z,6.50
2019-05-15T19:22:58.932Z,6.40
2019-05-15T19:25:28.587Z,6.40
2019-05-15T19:27:57.384Z,6.40
2019-05-15T19:30:28.505Z,6.40
2019-05-15T19:32:58.487Z,6.40
2019-05-15T19:35:28.007Z,6.50
2019-05-15T19:37:58.545Z,6.60
2019-05-15T19:40:28.366Z,6.60
2019-05-15T19:42:59.101Z,6.60
2019-05-15T19:45:28.170Z,6.50
2019-05-15T19:47:58.809Z,6.40
2019-05-15T19:50:28.812Z,6.40
2019-05-15T19:52:59.128Z,6.40
2019-05-15T19:55:27.963Z,6.40
2019-05-15T19:57:58.517Z,6.40
2019-05-15T20:00:28.474Z,6.40
2019-05-15T20:02:58.083Z,6.30
2019-05-15T20:05:28.994Z,6.20
2019-05-15T20:07:58.740Z,6.20
2019-05-15T20:10:29.279Z,6.10
2019-05-15T20:12:59.513Z,6.10
2019-05-15T20:15:28.670Z,6.10
2019-05-15T20:17:57.765Z,6.10
2019-05-15T20:20:28.362Z,6.10
2019-05-15T20:22:59.958Z,6.10
2019-05-15T20:25:27.840Z,6.00
2019-05-15T20:27:56.701Z,6.00
2019-05-15T20:30:25.353Z,5.90
2019-05-15T20:32:53.963Z,5.90
2019-05-15T20:35:22.655Z,5.90
2019-05-15T20:37:51.497Z,5.90
2019-05-15T20:40:20.295Z,5.80
2019-05-15T20:42:48.857Z,5.80
2019-05-15T20:45:18.430Z,5.80
2019-05-15T20:47:47.283Z,5.80
2019-05-15T20:50:15.986Z,5.80
2019-05-15T20:52:44.652Z,5.70
2019-05-15T20:55:13.882Z,5.70
2019-05-15T20:57:42.516Z,5.70
2019-05-15T21:00:13.663Z,5.70
2019-05-15T21:02:42.283Z,5.60
2019-05-15T21:05:10.968Z,5.60
2019-05-15T21:07:43.115Z,5.60
2019-05-15T21:10:10.981Z,5.60
2019-05-15T21:12:41.063Z,5.60
2019-05-15T21:15:10.906Z,5.60
2019-05-15T21:17:41.882Z,5.60
2019-05-15T21:20:10.093Z,5.60
2019-05-15T21:22:40.270Z,5.60
2019-05-15T21:25:10.726Z,5.60
2019-05-15T21:27:42.325Z,5.50
2019-05-15T21:30:11.244Z,5.50
2019-05-15T21:32:39.791Z,5.50
2019-05-15T21:35:09.344Z,5.50
2019-05-15T21:37:38.853Z,5.50
2019-05-15T21:40:08.958Z,5.50
2019-05-15T21:42:38.893Z,5.50
2019-05-15T21:45:14.293Z,5.50
2019-05-15T21:47:38.898Z,5.50
2019-05-15T21:50:08.619Z,5.40
2019-05-15T21:52:39.167Z,5.40
2019-05-15T21:55:09.599Z,5.40
2019-05-15T21:57:40.330Z,5.40
2019-05-15T22:00:20.737Z,5.40
2019-05-15T22:02:49.574Z,5.30
2019-05-15T22:05:18.978Z,5.30
2019-05-15T22:07:50.905Z,5.30
2019-05-15T22:10:19.459Z,5.30
2019-05-15T22:12:48.417Z,5.30
2019-05-15T22:15:18.960Z,5.30
2019-05-15T22:17:49.334Z,5.30
2019-05-15T22:20:18.857Z,5.30
2019-05-15T22:22:50.296Z,5.30
2019-05-15T22:25:19.673Z,5.20
2019-05-15T22:27:49.643Z,5.20
2019-05-15T22:30:19.933Z,5.20
2019-05-15T22:32:49.585Z,5.30
2019-05-15T22:35:19.299Z,5.20
2019-05-15T22:37:49.380Z,5.20
2019-05-15T22:40:18.612Z,5.20
2019-05-15T22:42:48.628Z,5.30
2019-05-15T22:45:18.556Z,5.30
2019-05-15T22:47:48.166Z,5.30
2019-05-15T22:50:18.928Z,5.20
2019-05-15T22:52:49.204Z,5.20
2019-05-15T22:55:18.447Z,5.20
2019-05-15T22:57:48.070Z,5.10
2019-05-15T23:00:17.439Z,5.20
2019-05-15T23:02:48.577Z,5.20
2019-05-15T23:05:25.086Z,5.20
2019-05-15T23:07:48.271Z,5.20
2019-05-15T23:10:17.382Z,5.10
2019-05-15T23:12:45.915Z,5.10
2019-05-15T23:15:14.715Z,5.10
2019-05-15T23:17:43.251Z,5.10
2019-05-15T23:20:12.611Z,5.10
2019-05-15T23:22:41.221Z,5.10
2019-05-15T23:25:09.903Z,5.10
2019-05-15T23:27:38.489Z,5.10
2019-05-15T23:30:08.943Z,5.10
2019-05-15T23:32:39.096Z,5.00
2019-05-15T23:35:08.722Z,5.00
2019-05-15T23:37:39.248Z,5.00
2019-05-15T23:40:08.813Z,5.00
2019-05-15T23:42:38.929Z,5.00
2019-05-15T23:45:08.280Z,5.00
2019-05-15T23:47:38.310Z,4.90
2019-05-15T23:50:07.581Z,4.90
2019-05-15T23:52:38.313Z,4.90
2019-05-15T23:55:08.658Z,4.80
2019-05-15T23:57:39.352Z,4.90
